EGHH/BOH METAR and TAF weather

Enter ICAO airport designator
Station Type Date Time Source
EGHH METAR 2019/04/25 19:50 UTC NOAA

EGHH 251950Z 19006KT 9999 FEW022 10/07 Q1003


Station Type Date Time Source
EGHH Decoded METAR 2019/04/25 19:50 UTC NOAA

Bournemouth Airport, United Kingdom (EGHH) 50-47N 001-50W 0M
Apr 25, 2019 - 03:50 PM EDT / 2019.04.25 1950 UTC
Wind: from the S (190 degrees) at 7 MPH (6 KT):0
Visibility: greater than 7 mile(s):0
Sky conditions: mostly clear
Temperature: 50 F (10 C)
Dew Point: 44 F (7 C)
Relative Humidity: 81%
Pressure (altimeter): 29.62 in. Hg (1003 hPa)
ob: EGHH 251950Z 19006KT 9999 FEW022 10/07 Q1003
cycle: 20

Station Type Date Time Source
EGHH TAF 2013/12/01 21:21 UTC NOAA

TAF TAF EGHH 010016Z 3021/0106 CNL

Example: see airport list